Time;durP1;ratioP1;P1;durP2;ratioP2;P2;SDS_P1;SDS_P2;PMS_P1;PMS_P2;Temp;Humidity;BMP_temperature;BMP_pressure;BME280_temperature;BME280_humidity;BME280_pressure;Samples;Min_cycle;Max_cycle;Signal;HPM_P1;HPM_P2
2021/03/12 00:00:00;;;;;;;29.40;14.03;;;;;;;-3.85;62.05;100429.03;1738640;78;21186;-64
2021/03/12 00:02:28;;;;;;;31.23;13.07;;;;;;;-3.85;62.13;100425.17;1756866;81;21201;-66
2021/03/12 00:04:55;;;;;;;30.90;13.47;;;;;;;-3.84;62.20;100437.23;1764610;81;21417;-66
2021/03/12 00:07:23;;;;;;;26.63;11.83;;;;;;;-3.85;61.99;100415.75;1752896;81;21924;-65
2021/03/12 00:09:51;;;;;;;29.87;11.97;;;;;;;-3.85;62.07;100407.16;1747574;80;21219;-65
2021/03/12 00:12:19;;;;;;;73.27;16.30;;;;;;;-3.84;61.94;100407.64;1747569;82;21603;-66
2021/03/12 00:15:31;;;;;;;21.00;10.03;;;;;;;-3.80;61.69;100403.89;1764078;77;22971;-76
2021/03/12 00:17:59;;;;;;;21.30;8.97;;;;;;;-3.82;61.54;100410.70;1654564;86;21205;-75
2021/03/12 00:20:31;;;;;;;28.07;13.10;;;;;;;-3.80;61.52;100396.56;1646264;87;22850;-73
2021/03/12 00:22:59;;;;;;;27.57;11.27;;;;;;;-3.80;61.46;100386.27;1646271;87;21601;-75
2021/03/12 00:25:37;;;;;;;32.53;15.10;;;;;;;-3.81;61.39;100390.97;1646228;87;21214;-75
2021/03/12 00:28:06;;;;;;;31.17;15.27;;;;;;;-3.81;61.39;100383.25;1646395;87;21665;-78
2021/03/12 00:30:34;;;;;;;33.67;13.77;;;;;;;-3.78;61.34;100377.31;1659256;79;21560;-65
2021/03/12 00:33:04;;;;;;;31.57;15.13;;;;;;;-3.81;61.25;100396.13;1684555;85;21368;-65
2021/03/12 00:35:39;;;;;;;28.87;12.83;;;;;;;-3.83;61.58;100379.77;1684860;85;21194;-66
2021/03/12 00:38:09;;;;;;;29.53;14.40;;;;;;;-3.81;61.12;100379.39;1684707;85;21756;-66
2021/03/12 00:40:49;;;;;;;28.97;14.43;;;;;;;-3.80;61.37;100379.84;1684674;85;21181;-65
2021/03/12 00:43:18;;;;;;;38.30;15.90;;;;;;;-3.79;61.15;100368.73;1684822;85;21154;-65
2021/03/12 00:45:56;;;;;;;29.67;14.57;;;;;;;-3.78;61.28;100364.44;1688540;80;22360;-75
2021/03/12 00:48:24;;;;;;;24.63;8.37;;;;;;;-3.80;61.14;100361.82;1713776;83;22211;-75
2021/03/12 00:50:53;;;;;;;31.00;11.87;;;;;;;-3.81;60.99;100370.39;1687084;83;21207;-76
2021/03/12 00:53:24;;;;;;;33.33;15.05;;;;;;;-3.80;60.53;100356.67;1713026;83;21751;-75
2021/03/12 00:55:52;;;;;;;26.23;13.50;;;;;;;-3.78;60.49;100352.44;1713610;83;21220;-76
2021/03/12 00:58:22;;;;;;;29.97;16.47;;;;;;;-3.79;60.55;100359.72;1687351;83;21466;-73
2021/03/12 01:00:51;;;;;;;;;;;;;;;-3.81;60.79;100339.51;1699722;81;21655;-63
2021/03/12 01:03:20;;;;;;;28.77;13.80;;;;;;;-3.82;60.55;100336.07;1659527;86;20241;-63
2021/03/12 01:05:50;;;;;;;27.50;13.67;;;;;;;-3.82;60.48;100337.75;1658725;86;21197;-64
2021/03/12 01:08:19;;;;;;;29.63;12.90;;;;;;;-3.83;60.53;100320.16;1658795;86;21194;-64
2021/03/12 01:10:47;;;;;;;27.43;13.03;;;;;;;-3.83;60.68;100320.58;1659646;86;22394;-64
2021/03/12 01:13:16;;;;;;;25.57;13.13;;;;;;;-3.84;60.89;100316.28;1659539;86;21257;-63
2021/03/12 01:15:45;;;;;;;38.40;11.53;;;;;;;-3.85;60.82;100312.81;1684005;79;21261;-72
2021/03/12 01:18:15;;;;;;;24.20;12.60;;;;;;;-3.87;60.63;100303.32;1658233;85;21173;-72
2021/03/12 01:20:44;;;;;;;24.95;13.00;;;;;;;-3.88;60.65;100288.73;1726286;82;21574;-73
2021/03/12 01:23:12;;;;;;;28.97;10.93;;;;;;;-3.91;60.41;100294.67;1736299;81;21213;-73
2021/03/12 01:25:43;;;;;;;25.43;12.43;;;;;;;-3.90;60.51;100285.25;1699239;84;21190;-73
2021/03/12 01:28:10;;;;;;;;;;;;;;;-3.93;60.48;100297.63;1701604;84;21200;-74
2021/03/12 01:30:41;;;;;;;28.27;12.57;;;;;;;-3.92;60.53;100277.91;1702973;81;20298;-66
2021/03/12 01:33:11;;;;;;;36.03;13.87;;;;;;;-3.93;60.62;100271.03;1737691;82;22125;-65
2021/03/12 01:35:40;;;;;;;29.50;11.70;;;;;;;-3.93;60.68;100292.91;1740059;81;21372;-65
2021/03/12 01:38:08;;;;;;;23.57;10.77;;;;;;;-3.92;60.52;100289.48;1739969;82;21619;-64
2021/03/12 01:40:45;;;;;;;26.37;11.50;;;;;;;-3.94;60.65;100281.72;1740061;82;21186;-65
2021/03/12 01:43:12;;;;;;;26.80;10.43;;;;;;;-3.95;60.85;100289.42;1740001;82;21179;-63
2021/03/12 01:45:46;;;;;;;32.30;15.33;;;;;;;-3.97;61.03;100288.51;1733352;79;21123;-82
2021/03/12 01:48:17;;;;;;;22.47;9.60;;;;;;;-4.01;60.97;100288.84;1682729;85;23421;-78
2021/03/12 01:50:50;;;;;;;26.00;10.70;;;;;;;-4.04;60.92;100306.36;1665262;85;21150;-80
2021/03/12 01:53:21;;;;;;;22.17;8.90;;;;;;;-4.05;61.12;100304.63;1677709;85;21211;-79
2021/03/12 01:55:51;;;;;;;25.73;13.97;;;;;;;-4.09;61.08;100323.39;1676899;85;21175;-76
2021/03/12 01:58:19;;;;;;;30.60;10.83;;;;;;;-4.11;61.07;100319.91;1677734;85;21288;-79
2021/03/12 02:00:49;;;;;;;27.37;13.32;;;;;;;-4.11;61.01;100313.47;1691644;80;21467;-64
2021/03/12 02:03:27;;;;;;;27.87;13.23;;;;;;;-4.11;61.30;100299.33;1754651;81;21161;-65
2021/03/12 02:05:56;;;;;;;22.83;10.57;;;;;;;-4.16;61.28;100288.06;1754585;79;21181;-65
2021/03/12 02:08:24;;;;;;;32.80;14.63;;;;;;;-4.18;61.43;100279.44;1754681;81;21581;-66
2021/03/12 02:10:57;;;;;;;25.87;13.03;;;;;;;-4.18;61.45;100257.99;1754854;81;21138;-65
2021/03/12 02:13:45;;;;;;;24.40;11.77;;;;;;;-4.20;61.42;100252.80;1754868;81;22319;-66
2021/03/12 02:16:40;;;;;;;21.10;10.60;;;;;;;-4.20;61.67;100256.66;1728798;79;21262;-82
2021/03/12 02:19:39;;;;;;;25.87;12.00;;;;;;;-4.20;61.76;100283.66;1681295;85;21229;-82
2021/03/12 02:22:07;;;;;;;29.97;11.53;;;;;;;-4.20;61.69;100257.08;1683806;85;21179;-83
2021/03/12 02:24:55;;;;;;;33.27;13.00;;;;;;;-4.21;61.95;100243.33;1681348;85;21165;-84
2021/03/12 02:27:42;;;;;;;23.17;12.20;;;;;;;-4.15;61.75;100243.48;1883805;76;21997;-88
2021/03/12 02:30:13;;;;;;;27.70;12.17;;;;;;;-4.20;61.78;100247.66;1821654;77;21186;-88
2021/03/12 02:32:44;;;;;;;20.30;11.37;;;;;;;-4.22;61.71;100257.03;1763583;74;21352;-65
2021/03/12 02:35:17;;;;;;;29.77;10.90;;;;;;;-4.22;61.56;100239.03;1751481;81;21527;-65
2021/03/12 02:37:46;;;;;;;25.67;11.93;;;;;;;-4.23;61.69;100261.73;1752817;81;21137;-65
2021/03/12 02:40:15;;;;;;;27.20;11.27;;;;;;;-4.24;61.60;100256.12;1752641;81;21488;-65
2021/03/12 02:42:44;;;;;;;18.60;10.73;;;;;;;-4.23;61.81;100229.59;1752158;81;21185;-65
2021/03/12 02:45:14;;;;;;;25.10;13.27;;;;;;;-4.26;61.85;100211.50;1752492;81;21435;-66
2021/03/12 02:47:42;;;;;;;21.17;9.88;;;;;;;-4.26;62.04;100230.78;1719000;80;21174;-86
2021/03/12 02:50:12;;;;;;;18.43;8.23;;;;;;;-4.26;61.99;100227.79;1749680;80;21199;-86
2021/03/12 02:52:42;;;;;;;26.83;12.27;;;;;;;-4.30;61.87;100225.11;1750628;80;21016;-81
2021/03/12 02:55:17;;;;;;;21.67;10.57;;;;;;;-4.32;61.91;100216.52;1750649;82;21606;-82
2021/03/12 02:57:47;;;;;;;24.53;10.13;;;;;;;-4.35;62.02;100222.42;1746283;82;21204;-75
2021/03/12 03:00:17;;;;;;;15.93;8.10;;;;;;;-4.37;62.28;100215.50;1715517;82;21713;-75
2021/03/12 03:03:00;;;;;;;24.10;10.57;;;;;;;-4.38;62.08;100206.06;1760066;79;21256;-63
2021/03/12 03:05:45;;;;;;;27.53;11.60;;;;;;;-4.39;62.02;100233.48;1764845;81;22204;-64
2021/03/12 03:08:12;;;;;;;14.43;7.90;;;;;;;-4.40;61.98;100211.59;1766021;81;21762;-63
2021/03/12 03:10:42;;;;;;;17.90;9.17;;;;;;;-4.41;62.33;100195.72;1703124;82;21370;-63
2021/03/12 03:13:10;;;;;;;19.90;10.10;;;;;;;-4.42;62.21;100194.83;1699385;84;21180;-65
2021/03/12 03:15:52;;;;;;;20.23;9.77;;;;;;;-4.45;62.16;100211.47;1758164;81;21655;-65
2021/03/12 03:18:22;;;;;;;28.57;11.87;;;;;;;-4.44;62.21;100186.20;1705166;84;21620;-81
2021/03/12 03:20:49;;;;;;;25.27;9.77;;;;;;;-4.43;62.46;100175.97;1710717;83;21238;-81
2021/03/12 03:23:20;;;;;;;19.23;7.95;;;;;;;-4.45;61.92;100187.05;1709571;84;21451;-79
2021/03/12 03:25:48;;;;;;;22.50;9.87;;;;;;;-4.44;61.76;100184.53;1710284;83;21191;-79
2021/03/12 03:28:18;;;;;;;25.70;12.23;;;;;;;-4.45;61.90;100176.34;1709333;83;21187;-82
2021/03/12 03:30:55;;;;;;;26.70;12.23;;;;;;;-4.44;61.54;100173.35;1710228;83;21171;-77
2021/03/12 03:33:22;;;;;;;25.50;11.10;;;;;;;-4.40;62.26;100174.31;1820511;78;21601;-65
2021/03/12 03:35:51;;;;;;;27.57;12.53;;;;;;;-4.43;61.61;100168.26;1820755;78;21258;-66
2021/03/12 03:38:19;;;;;;;23.00;9.63;;;;;;;-4.41;61.65;100180.30;1820106;78;21174;-66
2021/03/12 03:40:50;;;;;;;18.17;9.43;;;;;;;-4.44;61.57;100156.25;1820181;78;21154;-66
2021/03/12 03:43:26;;;;;;;24.97;9.73;;;;;;;-4.45;61.39;100154.49;1819990;78;21155;-68
2021/03/12 03:46:01;;;;;;;22.67;10.03;;;;;;;-4.47;61.49;100130.45;1766486;78;21252;-65
2021/03/12 03:48:33;;;;;;;21.70;10.30;;;;;;;-4.48;61.63;100131.30;1733480;82;21387;-79
2021/03/12 03:51:05;;;;;;;27.30;10.97;;;;;;;-4.50;61.26;100125.67;1702812;82;21655;-79
2021/03/12 03:53:35;;;;;;;;;;;;;;;-4.52;61.12;100141.05;1734862;82;22257;-80
2021/03/12 03:56:05;;;;;;;31.65;10.55;;;;;;;-4.54;61.05;100128.57;1703360;82;20322;-80
2021/03/12 03:58:35;;;;;;;;;;;;;;;-4.57;61.10;100143.93;1735025;82;21168;-78
2021/03/12 04:01:03;;;;;;;20.67;8.97;;;;;;;-4.59;61.31;100127.59;1713895;79;21287;-66
2021/03/12 04:03:34;;;;;;;20.93;8.37;;;;;;;-4.60;60.98;100138.73;1719744;83;21583;-66
2021/03/12 04:06:03;;;;;;;26.10;10.43;;;;;;;-4.62;61.18;100165.19;1719831;83;26794;-66
2021/03/12 04:08:32;;;;;;;26.80;10.73;;;;;;;-4.62;61.47;100132.67;1719764;83;21215;-64
2021/03/12 04:11:00;;;;;;;21.60;9.60;;;;;;;-4.61;61.59;100140.83;1719725;83;22038;-65
2021/03/12 04:13:30;;;;;;;22.33;11.00;;;;;;;-4.64;61.55;100139.48;1719652;83;21583;-65
2021/03/12 04:16:07;;;;;;;25.20;10.07;;;;;;;-4.67;61.56;100141.95;1719637;83;21500;-66
2021/03/12 04:18:35;;;;;;;27.03;12.17;;;;;;;-4.67;61.66;100139.38;1738785;81;21196;-73
2021/03/12 04:21:04;;;;;;;26.57;11.20;;;;;;;-4.69;61.71;100151.35;1720768;83;21202;-73
2021/03/12 04:23:33;;;;;;;21.93;9.97;;;;;;;-4.69;61.63;100143.64;1695123;84;21362;-74
2021/03/12 04:26:02;;;;;;;21.62;7.95;;;;;;;-4.71;61.79;100156.44;1692955;84;21854;-74
2021/03/12 04:28:30;;;;;;;27.47;12.87;;;;;;;-4.71;61.76;100155.58;1694786;83;21588;-74
2021/03/12 04:31:09;;;;;;;19.57;9.17;;;;;;;-4.73;61.70;100150.39;1692570;84;21230;-75
2021/03/12 04:33:39;;;;;;;29.48;11.85;;;;;;;-4.73;61.67;100131.54;1716567;83;21139;-63
2021/03/12 04:36:07;;;;;;;17.23;8.17;;;;;;;-4.74;61.67;100136.21;1670025;83;21643;-64
2021/03/12 04:38:36;;;;;;;24.90;11.23;;;;;;;-4.74;61.82;100142.63;1742084;82;21251;-63
2021/03/12 04:41:05;;;;;;;32.30;12.60;;;;;;;-4.78;62.04;100131.42;1723660;83;21701;-64
2021/03/12 04:43:34;;;;;;;24.00;10.53;;;;;;;-4.79;62.21;100142.52;1677284;83;21190;-64
2021/03/12 04:46:23;;;;;;;19.67;9.50;;;;;;;-4.80;62.18;100150.21;1720537;83;21875;-63
2021/03/12 04:48:53;;;;;;;22.40;11.53;;;;;;;-4.80;62.07;100148.92;1765617;79;21166;-75
2021/03/12 04:51:22;;;;;;;26.10;12.43;;;;;;;-4.83;62.15;100183.12;1765374;81;21382;-75
2021/03/12 04:53:51;;;;;;;30.37;12.03;;;;;;;-4.81;62.25;100166.44;1763393;81;21213;-74
2021/03/12 04:56:19;;;;;;;24.70;11.90;;;;;;;-4.80;62.23;100173.33;1739013;82;21182;-75
2021/03/12 04:58:47;;;;;;;27.43;11.43;;;;;;;-4.80;62.10;100179.75;1713948;82;21209;-74
2021/03/12 05:01:18;;;;;;;21.80;10.57;;;;;;;-4.81;61.99;100190.42;1748451;79;21535;31
2021/03/12 05:03:47;;;;;;;23.23;10.83;;;;;;;-4.85;61.77;100177.07;1746886;81;21373;-65
2021/03/12 05:06:15;;;;;;;23.13;11.53;;;;;;;-4.87;62.01;100162.89;1746796;82;21618;-65
2021/03/12 05:08:44;;;;;;;22.30;11.77;;;;;;;-4.88;62.11;100175.29;1745505;82;21199;-65
2021/03/12 05:11:15;;;;;;;30.77;13.30;;;;;;;-4.88;61.97;100158.59;1746380;82;21446;-65
2021/03/12 05:14:02;;;;;;;23.27;9.03;;;;;;;-4.88;62.16;100163.73;1745553;82;21179;-64
2021/03/12 05:16:32;;;;;;;22.50;11.30;;;;;;;-4.86;62.14;100167.18;1746834;80;21384;-77
2021/03/12 05:19:01;;;;;;;23.20;9.83;;;;;;;-4.89;62.17;100173.95;1823171;78;21857;-77
2021/03/12 05:21:31;;;;;;;28.03;12.70;;;;;;;-4.88;62.20;100157.70;1823511;78;21745;-72
2021/03/12 05:23:59;;;;;;;29.63;13.53;;;;;;;-4.88;62.01;100175.69;1821328;77;21177;-72
2021/03/12 05:26:28;;;;;;;25.13;12.13;;;;;;;-4.87;62.05;100168.03;1819130;78;21114;-73
2021/03/12 05:28:58;;;;;;;32.20;11.87;;;;;;;-4.87;62.04;100173.16;1822787;78;21508;-75
2021/03/12 05:31:27;;;;;;;24.80;11.95;;;;;;;-4.87;62.20;100170.59;1819638;77;21126;-64
2021/03/12 05:33:55;;;;;;;21.47;9.30;;;;;;;-4.86;62.13;100160.76;1778363;78;21135;-64
2021/03/12 05:36:23;;;;;;;24.63;10.53;;;;;;;-4.94;62.04;100166.13;1765583;80;21163;-63
2021/03/12 05:38:51;;;;;;;27.77;10.90;;;;;;;-4.95;61.93;100152.81;1742761;80;21186;-65
2021/03/12 05:41:19;;;;;;;25.97;10.90;;;;;;;-4.95;62.00;100124.56;1776176;80;22006;-65
2021/03/12 05:43:47;;;;;;;27.07;12.03;;;;;;;-4.97;61.98;100141.66;1742375;80;21185;-64
2021/03/12 05:46:16;;;;;;;29.50;12.77;;;;;;;-4.97;62.02;100130.11;1715907;82;21223;-64
2021/03/12 05:48:51;;;;;;;30.87;11.97;;;;;;;-4.94;61.82;100136.59;1742514;81;21188;-75
2021/03/12 05:51:21;;;;;;;31.83;12.97;;;;;;;-4.94;61.87;100132.73;1718595;81;21161;-75
2021/03/12 05:53:51;;;;;;;21.95;10.00;;;;;;;-4.94;61.75;100135.31;1741313;81;21471;-73
2021/03/12 05:56:19;;;;;;;32.40;9.27;;;;;;;-4.92;61.21;100149.06;1715159;81;21596;-75
2021/03/12 05:59:00;;;;;;;30.37;10.07;;;;;;;-4.85;61.13;100138.53;1831524;76;22815;-74
2021/03/12 06:01:36;;;;;;;29.50;10.13;;;;;;;-4.88;60.78;100153.84;1737055;78;21732;-75
2021/03/12 06:04:05;;;;;;;23.63;10.27;;;;;;;-4.89;60.53;100155.55;1674771;84;21393;-67
2021/03/12 06:06:36;;;;;;;42.27;10.70;;;;;;;-4.87;60.17;100138.91;1720758;82;21191;-66
2021/03/12 06:09:05;;;;;;;29.33;9.90;;;;;;;-4.86;60.05;100145.77;1716899;83;21199;-67
2021/03/12 06:11:34;;;;;;;28.20;11.90;;;;;;;-4.86;60.04;100127.36;1703835;82;21661;-67
2021/03/12 06:14:02;;;;;;;21.53;10.03;;;;;;;-4.83;59.58;100139.44;1701268;83;21467;-68
2021/03/12 06:16:38;;;;;;;29.07;11.27;;;;;;;-4.80;59.48;100123.23;1682398;82;21390;-66
2021/03/12 06:19:17;;;;;;;32.67;11.33;;;;;;;-4.75;59.24;100141.77;1759659;79;21229;-72
2021/03/12 06:21:48;;;;;;;23.83;10.90;;;;;;;-4.79;58.99;100121.10;1788623;79;21166;-72
2021/03/12 06:24:33;;;;;;;28.83;9.50;;;;;;;-4.78;58.83;100128.00;1779016;80;21140;-72
2021/03/12 06:27:29;;;;;;;25.20;9.97;;;;;;;-4.81;58.90;100130.47;1695480;83;21181;-73
2021/03/12 06:30:06;;;;;;;38.80;12.00;;;;;;;-4.71;58.52;100124.32;1835425;78;22601;-71
2021/03/12 06:32:49;;;;;;;35.50;10.43;;;;;;;-4.72;58.45;100106.28;1780529;76;21228;-66
2021/03/12 06:35:31;;;;;;;22.33;9.80;;;;;;;-4.69;58.51;100120.52;1751942;80;22341;-66
2021/03/12 06:38:08;;;;;;;24.77;10.50;;;;;;;-4.67;58.47;100117.15;1765242;80;21131;-67
2021/03/12 06:40:43;;;;;;;27.93;11.28;;;;;;;-4.68;58.38;100095.26;1719613;81;21175;-68
2021/03/12 06:43:24;;;;;;;30.20;10.33;;;;;;;-4.68;58.30;100088.83;1824801;78;21497;-66
2021/03/12 06:45:57;;;;;;;32.20;11.43;;;;;;;-4.65;58.61;100081.19;1807492;78;21168;-67
2021/03/12 06:48:34;;;;;;;25.70;9.50;;;;;;;-4.61;58.33;100144.68;1801804;76;21371;-72
2021/03/12 06:51:13;;;;;;;32.87;11.33;;;;;;;-4.52;58.27;100087.49;1826075;76;22786;-73
2021/03/12 06:53:49;;;;;;;27.23;11.00;;;;;;;-4.56;58.29;100073.69;1786812;79;21186;-73
2021/03/12 06:56:17;;;;;;;37.57;12.10;;;;;;;-4.54;58.35;100115.72;1805110;78;21206;-72
2021/03/12 06:59:03;;;;;;;44.60;11.73;;;;;;;-4.45;58.08;100075.23;1869286;76;22488;-71
2021/03/12 07:01:33;;;;;;;27.47;10.13;;;;;;;-4.47;57.88;100075.61;1845362;77;21512;-73
2021/03/12 07:04:12;;;;;;;30.83;11.80;;;;;;;-4.40;57.99;100071.47;1748474;79;22535;-66
2021/03/12 07:06:48;;;;;;;29.10;10.70;;;;;;;-4.40;58.08;100079.19;1716654;82;21183;-66
2021/03/12 07:09:18;;;;;;;33.37;10.37;;;;;;;-4.39;58.05;100074.09;1723304;82;21660;-66
2021/03/12 07:11:57;;;;;;;25.68;10.68;;;;;;;-4.37;57.95;100074.10;1716706;82;21143;-67
2021/03/12 07:14:43;;;;;;;26.47;9.57;;;;;;;-4.31;58.02;100074.25;1716002;82;21661;-66
2021/03/12 07:17:13;;;;;;;40.43;13.07;;;;;;;-4.28;57.60;100064.02;1707519;80;21564;-71
2021/03/12 07:19:44;;;;;;;33.40;11.87;;;;;;;-4.25;57.46;100089.83;1642889;85;21209;-72
2021/03/12 07:22:12;;;;;;;27.93;10.98;;;;;;;-4.24;57.68;100065.83;1643887;86;21964;-73
2021/03/12 07:24:41;;;;;;;31.30;9.30;;;;;;;-4.19;57.61;100056.93;1653792;86;21207;-73
2021/03/12 07:27:09;;;;;;;34.87;11.27;;;;;;;-4.18;57.38;100073.69;1653106;85;21186;-73
2021/03/12 07:30:04;;;;;;;29.33;11.33;;;;;;;-4.14;57.15;100052.74;1816422;78;22731;-73
2021/03/12 07:32:36;;;;;;;39.40;13.00;;;;;;;-4.19;57.54;100047.93;1770047;77;21145;-68
2021/03/12 07:35:06;;;;;;;42.05;12.95;;;;;;;-4.13;57.40;100038.64;1720959;80;21581;-68
2021/03/12 07:37:36;;;;;;;28.17;11.80;;;;;;;-4.11;57.13;100012.54;1744358;79;21554;-68
2021/03/12 07:40:07;;;;;;;24.43;10.07;;;;;;;-4.09;57.16;100045.59;1716645;81;21157;-68
2021/03/12 07:42:35;;;;;;;31.93;10.67;;;;;;;-4.05;56.98;100033.25;1709291;81;21197;-67
2021/03/12 07:45:21;;;;;;;29.27;12.13;;;;;;;-3.99;57.00;100040.64;1746583;78;21209;-68
2021/03/12 07:48:07;;;;;;;29.47;10.53;;;;;;;-3.95;56.97;100054.02;1729413;78;21239;-73
2021/03/12 07:50:38;;;;;;;24.52;9.80;;;;;;;-4.03;56.98;100053.41;1654285;85;21226;-72
2021/03/12 07:53:09;;;;;;;32.55;12.15;;;;;;;-4.02;57.19;100043.59;1665380;85;26897;-73
2021/03/12 07:55:50;;;;;;;32.40;11.67;;;;;;;-3.99;57.26;100033.78;1675790;85;21202;-71
2021/03/12 07:58:55;;;;;;;25.37;10.13;;;;;;;-4.01;57.09;100014.45;1681051;83;21148;-72
2021/03/12 08:01:26;;;;;;;23.03;10.83;;;;;;;-4.04;57.30;100004.10;1682866;83;21644;-73
2021/03/12 08:03:56;;;;;;;34.60;11.88;;;;;;;-3.96;57.32;99993.09;1679587;81;21301;-68
2021/03/12 08:06:30;;;;;;;27.70;9.37;;;;;;;-3.89;57.30;99985.94;1641839;87;21238;-67
2021/03/12 08:09:34;;;;;;;39.47;10.43;;;;;;;-3.89;57.18;100003.95;1645354;85;21233;-67
2021/03/12 08:12:33;;;;;;;24.57;10.37;;;;;;;-3.94;57.14;100027.44;1600483;89;21692;-68
2021/03/12 08:15:19;;;;;;;31.30;10.10;;;;;;;-3.96;57.21;100006.81;1572785;90;21441;-68
2021/03/12 08:18:04;;;;;;;23.90;9.00;;;;;;;-3.94;57.25;100026.16;1652319;81;21264;-74
2021/03/12 08:20:41;;;;;;;19.53;8.00;;;;;;;-3.88;57.41;100019.85;1650390;86;21234;-73
2021/03/12 08:23:34;;;;;;;25.23;10.17;;;;;;;-3.77;57.27;100014.50;1826860;77;22668;-73
2021/03/12 08:26:04;;;;;;;30.83;10.97;;;;;;;-3.81;57.19;100022.98;1799584;78;21190;-72
2021/03/12 08:28:34;;;;;;;26.90;9.63;;;;;;;-3.77;57.29;99993.02;1727022;82;21826;-73
2021/03/12 08:31:04;;;;;;;31.80;11.27;;;;;;;-3.71;57.33;99993.14;1751136;80;21643;-72
2021/03/12 08:33:49;;;;;;;19.37;10.10;;;;;;;-3.68;56.99;99994.08;1757833;79;21164;-68
2021/03/12 08:36:26;;;;;;;28.40;10.40;;;;;;;-3.72;57.07;100007.72;1795646;78;21179;-68
2021/03/12 08:39:28;;;;;;;16.30;7.93;;;;;;;-3.63;57.21;99991.16;1821878;78;22684;-67
2021/03/12 08:42:16;;;;;;;26.62;8.90;;;;;;;-3.64;57.16;99998.41;1792948;77;21638;-66
2021/03/12 08:44:54;;;;;;;28.50;9.27;;;;;;;-3.61;57.01;99990.77;1831898;76;22705;-68
2021/03/12 08:47:25;;;;;;;21.33;9.88;;;;;;;-3.64;57.24;99982.11;1768973;77;21233;-72
2021/03/12 08:49:54;;;;;;;16.10;8.50;;;;;;;-3.63;57.04;100019.48;1727931;82;21375;-72
2021/03/12 08:52:24;;;;;;;27.87;10.55;;;;;;;-3.64;57.23;99989.41;1708015;82;21730;-73
2021/03/12 08:54:54;;;;;;;30.62;10.48;;;;;;;-3.59;57.15;99974.94;1706742;82;21239;-73
2021/03/12 08:57:25;;;;;;;29.33;9.97;;;;;;;-3.56;57.43;99967.69;1705694;82;21223;-72
2021/03/12 09:00:08;;;;;;;33.93;9.13;;;;;;;-3.53;57.33;99964.30;1720042;82;21546;-73
2021/03/12 09:02:43;;;;;;;30.10;10.90;;;;;;;-3.50;57.50;99974.63;1673525;78;21405;-68
2021/03/12 09:05:28;;;;;;;26.05;9.98;;;;;;;-3.47;57.28;99948.96;1775766;80;24965;-68
2021/03/12 09:08:13;;;;;;;35.30;9.70;;;;;;;-3.43;57.25;99922.40;1756202;79;21211;-68
2021/03/12 09:10:46;;;;;;;31.20;10.30;;;;;;;-3.41;57.09;99948.61;1781137;79;21183;-68
2021/03/12 09:13:32;;;;;;;23.20;9.10;;;;;;;-3.39;57.00;99946.08;1782835;80;21147;-67
2021/03/12 09:16:02;;;;;;;23.63;7.73;;;;;;;-3.33;57.05;99938.45;1782999;79;21526;-67
2021/03/12 09:18:32;;;;;;;22.70;9.43;;;;;;;-3.31;57.07;99948.37;1761538;78;26647;-73
2021/03/12 09:21:05;;;;;;;23.40;9.70;;;;;;;-3.28;57.08;99932.95;1743493;80;21139;-74
2021/03/12 09:23:50;;;;;;;23.10;8.87;;;;;;;-3.26;57.01;99925.27;1717932;82;21254;-72
2021/03/12 09:26:23;;;;;;;74.10;10.70;;;;;;;-3.26;57.23;99942.86;1685512;83;21222;-72
2021/03/12 09:28:57;;;;;;;21.07;9.07;;;;;;;-3.23;57.13;99933.88;1727030;81;21436;-71
2021/03/12 09:31:37;;;;;;;23.63;9.63;;;;;;;-3.29;57.32;99933.81;1758084;81;21199;-71
2021/03/12 09:34:20;;;;;;;28.87;10.23;;;;;;;-3.29;57.56;99915.78;1739936;78;21188;-66
2021/03/12 09:36:51;;;;;;;;;;;;;;;-3.28;57.58;99945.83;1775246;79;21139;-66
2021/03/12 09:39:23;;;;;;;22.50;9.25;;;;;;;-3.27;57.54;99905.48;1770453;80;20286;-66
2021/03/12 09:41:59;;;;;;;24.50;9.97;;;;;;;-3.29;57.71;99915.78;1771592;81;21600;-67
2021/03/12 09:44:28;;;;;;;17.07;8.07;;;;;;;-3.28;57.93;99903.34;1781606;80;21122;-66
2021/03/12 09:46:59;;;;;;;31.63;10.00;;;;;;;-3.29;57.79;99909.34;1784517;78;21211;-65
2021/03/12 09:49:38;;;;;;;16.33;7.70;;;;;;;-3.28;58.11;99916.21;1713450;79;21196;-72
2021/03/12 09:52:12;;;;;;;20.73;7.57;;;;;;;-3.27;58.08;99887.03;1673167;84;21162;-73
2021/03/12 09:54:44;;;;;;;24.93;8.53;;;;;;;-3.22;58.39;99882.84;1703028;82;21196;-69
2021/03/12 09:57:21;;;;;;;33.10;8.70;;;;;;;-3.20;58.15;99899.18;1667461;85;26309;-72
2021/03/12 09:59:51;;;;;;;24.10;9.20;;;;;;;-3.19;58.21;99879.00;1691465;84;21240;-69
2021/03/12 10:05:20;;;;;;;23.30;8.40;;;;;;;-3.23;59.54;99881.52;1702845;82;21219;-67
2021/03/12 10:08:04;;;;;;;28.17;9.03;;;;;;;-3.26;59.63;99917.53;1705811;84;21359;-69
2021/03/12 10:10:42;;;;;;;23.67;10.23;;;;;;;-3.17;59.66;99900.50;1847694;76;28217;-68
2021/03/12 10:13:12;;;;;;;31.05;10.98;;;;;;;-3.14;59.65;99899.68;1843470;77;21114;-69
2021/03/12 10:15:44;;;;;;;26.47;10.13;;;;;;;-3.10;60.24;99873.55;1832898;77;21385;-67
2021/03/12 10:18:19;;;;;;;22.97;8.43;;;;;;;-3.06;60.37;99869.75;1774884;77;21227;-70
2021/03/12 10:20:50;;;;;;;24.82;8.48;;;;;;;-3.03;60.68;99861.20;1766080;81;21151;-71
2021/03/12 10:23:19;;;;;;;22.13;8.90;;;;;;;-3.05;61.47;99866.75;1804880;79;21131;-70
2021/03/12 10:25:51;;;;;;;27.50;11.33;;;;;;;-3.13;61.75;99863.19;1805573;78;21159;-70
2021/03/12 10:28:22;;;;;;;30.43;11.20;;;;;;;-3.07;63.18;99865.86;1802709;78;21611;-69
2021/03/12 10:30:59;;;;;;;22.95;9.98;;;;;;;-3.08;63.89;99867.97;1787110;78;21159;-71
2021/03/12 10:33:30;;;;;;;25.93;9.47;;;;;;;-3.17;64.79;99873.45;1739324;80;21259;-68
2021/03/12 10:36:02;;;;;;;22.53;10.80;;;;;;;-3.25;65.48;99848.00;1750678;81;21226;-68
2021/03/12 10:38:35;;;;;;;23.20;10.13;;;;;;;-3.25;66.42;99860.88;1750879;81;21187;-68
2021/03/12 10:41:19;;;;;;;35.37;10.07;;;;;;;-3.28;68.11;99858.27;1726366;81;22732;-67
2021/03/12 10:44:09;;;;;;;28.97;10.80;;;;;;;-3.40;69.95;99878.70;1709783;83;21665;-68
2021/03/12 10:46:37;;;;;;;26.60;10.93;;;;;;;-3.47;71.57;99856.28;1686392;85;21703;-68
2021/03/12 10:49:05;;;;;;;21.40;9.93;;;;;;;-3.51;72.57;99850.63;1712473;81;21175;-72
2021/03/12 10:51:37;;;;;;;24.87;9.60;;;;;;;-3.55;72.93;99863.00;1729092;81;21634;-71
2021/03/12 10:54:07;;;;;;;23.97;10.10;;;;;;;-3.60;74.10;99859.92;1757897;81;21411;-70
2021/03/12 10:56:45;;;;;;;32.67;12.80;;;;;;;-3.65;75.78;99847.41;1743600;81;21220;-71
2021/03/12 10:59:13;;;;;;;28.67;13.27;;;;;;;-3.67;76.71;99843.95;1760365;81;21142;-71
2021/03/12 11:01:45;;;;;;;29.30;14.07;;;;;;;-3.71;78.21;99834.44;1744850;81;21205;-71
2021/03/12 11:04:14;;;;;;;24.07;9.70;;;;;;;-3.68;79.23;99847.38;1748480;80;21213;-69
2021/03/12 11:06:44;;;;;;;30.87;12.93;;;;;;;-3.71;80.10;99844.73;1742777;82;21753;-68
2021/03/12 11:09:15;;;;;;;29.43;13.97;;;;;;;-3.73;81.10;99850.70;1723217;81;21244;-69
2021/03/12 11:11:44;;;;;;;31.60;14.40;;;;;;;-3.77;81.70;99856.23;1734222;81;21199;-68
2021/03/12 11:14:12;;;;;;;27.13;11.53;;;;;;;-3.82;82.25;99843.69;1730450;80;21508;-69
2021/03/12 11:16:40;;;;;;;26.00;11.13;;;;;;;-3.83;82.97;99848.41;1725464;81;21168;-69
2021/03/12 11:19:09;;;;;;;23.17;11.83;;;;;;;-3.82;83.46;99848.84;1740163;80;22271;-71
2021/03/12 11:21:37;;;;;;;39.70;14.90;;;;;;;-3.87;84.15;99832.47;1758984;80;21214;-71
2021/03/12 11:24:06;;;;;;;28.93;11.10;;;;;;;-3.84;84.48;99840.26;1772168;79;21246;-70
2021/03/12 11:26:34;;;;;;;27.87;13.27;;;;;;;-3.87;84.46;99824.75;1772581;80;21751;-69
2021/03/12 11:29:02;;;;;;;25.60;9.70;;;;;;;-3.92;84.63;99823.38;1772426;79;21643;-71
2021/03/12 11:31:30;;;;;;;28.90;12.57;;;;;;;-3.91;84.98;99823.84;1780795;79;21207;-70
2021/03/12 11:33:58;;;;;;;28.77;13.57;;;;;;;-3.88;85.18;99826.46;1743770;80;21198;-68
2021/03/12 11:36:26;;;;;;;35.03;14.07;;;;;;;-3.87;85.60;99829.47;1736864;80;21190;-67
2021/03/12 11:38:53;;;;;;;30.47;11.20;;;;;;;-3.85;85.49;99817.50;1743283;81;21158;-67
2021/03/12 11:41:21;;;;;;;29.90;14.70;;;;;;;-3.81;85.65;99809.41;1747984;81;21197;-67
2021/03/12 11:43:51;;;;;;;39.97;17.00;;;;;;;-3.77;85.92;99821.50;1723603;82;21315;-67